METAR AND TAF INFORMATION
METAR FOR CYQB
ADDS - METARS form results

(0614 UTC 27 April 2018)
Data provider http://aviationweather.gov/adds/metars/
 
METAR text: CYQB 270600Z 24009KT 11SM BKN005 BKN057 05/05 A2972 RMK SF6SC1 SLP067
Conditions at: CYQB (QUEBEC , QC, CA) observed 0600 UTC 27 April 2018
Temperature: 5.0°C (41°F)
Dewpoint: 5.0°C (41°F) [RH = 100%]
Pressure (altimeter): 29.72 inches Hg (1006.5 mb)
[Sea-level pressure: 1006.7 mb]
Winds: from the WSW (240 degrees) at 10 MPH (9 knots; 4.7 m/s)
Visibility: 11 miles (18 km)
Ceiling: 500 feet AGL
Clouds: broken clouds at 500 feet AGL
broken clouds at 5700 feet AGL
Weather: no significant weather observed at this time

METAR text: CYQB 270554Z 25009KT 11SM BKN005 BKN057 05/05 A2972 RMK SF5SC1 SLP067
Conditions at: CYQB (QUEBEC , QC, CA) observed 0554 UTC 27 April 2018
Temperature: 5.0°C (41°F)
Dewpoint: 5.0°C (41°F) [RH = 100%]
Pressure (altimeter): 29.72 inches Hg (1006.5 mb)
[Sea-level pressure: 1006.7 mb]
Winds: from the WSW (250 degrees) at 10 MPH (9 knots; 4.7 m/s)
Visibility: 11 miles (18 km)
Ceiling: 500 feet AGL
Clouds: broken clouds at 500 feet AGL
broken clouds at 5700 feet AGL
Weather: no significant weather observed at this time

Forecast for: CYQB (QUEBEC , QC, CA)
Text: TAF AMD CYQB 270541Z 2706/2806 24010KT P6SM FEW005 SCT050
Forecast period: 0600 to 1400 UTC 27 April 2018
Forecast type: FROM: standard forecast or significant change
Winds: from the WSW (240 degrees) at 12 MPH (10 knots; 5.2 m/s)
Visibility: 6 or more miles (10+ km)
Clouds: few clouds at 500 feet AGL
scattered clouds at 5000 feet AGL
Weather: no significant weather forecast for this period
Forecast for: CYQB (QUEBEC , QC, CA)
Text: TAF AMD CYQB 270541Z 2706/2806 24010KT P6SM FEW005 SCT050
Forecast period: 0600 to 1400 UTC 27 April 2018
Forecast type: FROM: standard forecast or significant change
Winds: from the WSW (240 degrees) at 12 MPH (10 knots; 5.2 m/s)
Visibility: 6 or more miles (10+ km)
Clouds: few clouds at 500 feet AGL
scattered clouds at 5000 feet AGL
Weather: no significant weather forecast for this period
Forecast for: CYQB (QUEBEC , QC, CA)
Text: TAF AMD CYQB 270541Z 2706/2806 24010KT P6SM FEW005 SCT050
Forecast period: 0600 to 1200 UTC 27 April 2018
Forecast type: PROBABLE: 30 percent likelihood of the following during this time
Visibility: 0.50 miles (0.80 km)
Ceiling: indefinite ceiling with vertical visibility of 200 feet AGL
Clouds: obscured sky
Weather: FG  (fog)
Forecast for: CYQB (QUEBEC , QC, CA)
Text: TAF AMD CYQB 270541Z 2706/2806 24010KT P6SM FEW005 SCT050
Forecast period: 0600 to 1200 UTC 27 April 2018
Forecast type: PROBABLE: 30 percent likelihood of the following during this time
Visibility: 0.50 miles (0.80 km)
Ceiling: indefinite ceiling with vertical visibility of 200 feet AGL
Clouds: obscured sky
Weather: FG  (fog)
Forecast for: CYQB (QUEBEC , QC, CA)
Text: TAF AMD CYQB 270541Z 2706/2806 24010KT P6SM FEW005 SCT050
Forecast period: 1400 to 2000 UTC 27 April 2018
Forecast type: FROM: standard forecast or significant change
Winds: from the WSW (240 degrees) at 9 MPH (8 knots; 4.2 m/s)
Visibility: 6 or more miles (10+ km)
Clouds: few clouds at 2000 feet AGL
Weather: no significant weather forecast for this period
Forecast for: CYQB (QUEBEC , QC, CA)
Text: TAF AMD CYQB 270541Z 2706/2806 24010KT P6SM FEW005 SCT050
Forecast period: 1400 to 2000 UTC 27 April 2018
Forecast type: FROM: standard forecast or significant change
Winds: from the WSW (240 degrees) at 9 MPH (8 knots; 4.2 m/s)
Visibility: 6 or more miles (10+ km)
Clouds: few clouds at 2000 feet AGL
Weather: no significant weather forecast for this period
Forecast for: CYQB (QUEBEC , QC, CA)
Text: TAF AMD CYQB 270541Z 2706/2806 24010KT P6SM FEW005 SCT050
Forecast period: 2000 UTC 27 April 2018 to 0000 UTC 28 April 2018
Forecast type: FROM: standard forecast or significant change
Winds: from the WSW (240 degrees) at 6 MPH (5 knots; 2.6 m/s)
Visibility: 6 or more miles (10+ km)
Ceiling: 4000 feet AGL
Clouds: broken clouds at 4000 feet AGL
Weather: no significant weather forecast for this period
Forecast for: CYQB (QUEBEC , QC, CA)
Text: TAF AMD CYQB 270541Z 2706/2806 24010KT P6SM FEW005 SCT050
Forecast period: 2000 UTC 27 April 2018 to 0000 UTC 28 April 2018
Forecast type: FROM: standard forecast or significant change
Winds: from the WSW (240 degrees) at 6 MPH (5 knots; 2.6 m/s)
Visibility: 6 or more miles (10+ km)
Ceiling: 4000 feet AGL
Clouds: broken clouds at 4000 feet AGL
Weather: no significant weather forecast for this period
Forecast for: CYQB (QUEBEC , QC, CA)
Text: TAF AMD CYQB 270541Z 2706/2806 24010KT P6SM FEW005 SCT050
Forecast period: 0000 to 0200 UTC 28 April 2018
Forecast type: FROM: standard forecast or significant change
Winds: from the NE (40 degrees) at 8 MPH (7 knots; 3.6 m/s)
Visibility: 6 or more miles (10+ km)
Ceiling: 4000 feet AGL
Clouds: broken clouds at 4000 feet AGL
Weather: -RA  (light rain)
Forecast for: CYQB (QUEBEC , QC, CA)
Text: TAF AMD CYQB 270541Z 2706/2806 24010KT P6SM FEW005 SCT050
Forecast period: 0000 to 0200 UTC 28 April 2018
Forecast type: FROM: standard forecast or significant change
Winds: from the NE (40 degrees) at 8 MPH (7 knots; 3.6 m/s)
Visibility: 6 or more miles (10+ km)
Ceiling: 4000 feet AGL
Clouds: broken clouds at 4000 feet AGL
Weather: -RA  (light rain)
Forecast for: CYQB (QUEBEC , QC, CA)
Text: TAF AMD CYQB 270541Z 2706/2806 24010KT P6SM FEW005 SCT050
Forecast period: 0200 to 0600 UTC 28 April 2018
Forecast type: FROM: standard forecast or significant change
Winds: from the NNE (30 degrees) at 8 MPH (7 knots; 3.6 m/s)
Visibility: 6 miles (10 km)
Ceiling: 1500 feet AGL
Clouds: overcast cloud deck at 1500 feet AGL
Weather: -RA BR  (light rain, mist)
Forecast for: CYQB (QUEBEC , QC, CA)
Text: TAF AMD CYQB 270541Z 2706/2806 24010KT P6SM FEW005 SCT050
Forecast period: 0200 to 0600 UTC 28 April 2018
Forecast type: FROM: standard forecast or significant change
Winds: from the NNE (30 degrees) at 8 MPH (7 knots; 3.6 m/s)
Visibility: 6 miles (10 km)
Ceiling: 1500 feet AGL
Clouds: overcast cloud deck at 1500 feet AGL
Weather: -RA BR  (light rain, mist)
Forecast for: CYQB (QUEBEC , QC, CA)
Text: TAF AMD CYQB 270541Z 2706/2806 24010KT P6SM FEW005 SCT050
Forecast period: 0400 to 0600 UTC 28 April 2018
Forecast type: PROBABLE: 30 percent likelihood of the following during this time
Visibility: 2.00 miles (3.22 km)
Ceiling: 800 feet AGL
Clouds: overcast cloud deck at 800 feet AGL
Weather: -RA BR  (light rain, mist)
Forecast for: CYQB (QUEBEC , QC, CA)
Text: TAF AMD CYQB 270541Z 2706/2806 24010KT P6SM FEW005 SCT050
Forecast period: 0400 to 0600 UTC 28 April 2018
Forecast type: PROBABLE: 30 percent likelihood of the following during this time
Visibility: 2.00 miles (3.22 km)
Ceiling: 800 feet AGL
Clouds: overcast cloud deck at 800 feet AGL
Weather: -RA BR  (light rain, mist)

 AIRPORT MAP

 RUNWAY INFORMATION
Runway 06 Runway length 9000 ft Runway width 150 ft
Runway elevation 244 ft Runway displaced threshold 0 ft Runway heading 44
Runway 24 Runway length 9000 ft Runway width 150 ft
Runway elevation 217 ft Runway displaced threshold 0 ft Runway heading 224
Runway 12 Runway length 5700 ft Runway width 150 ft
Runway elevation 239 ft Runway displaced threshold 0 ft Runway heading 98
Runway 30 Runway length 5700 ft Runway width 150 ft
Runway elevation 231 ft Runway displaced threshold 0 ft Runway heading 278

 AIRPORT FREQUENCIES
Type A/D Name TRML CON Frequency 124 MHZ
Type ATIS Name Atis Frenc Frequency 128.3 MHZ
Type ATIS Name Atis Engli Frequency 134.6 MHZ
Type CNTR Name MONTREAL C Frequency 135.025 MHZ
Type GND Name GND Frequency 121.9 MHZ
Type RDO Name RDO Frequency 123.55 MHZ
Type TWR Name TWR Frequency 118.65 MHZ

 AIRPORT NEAR NAVIGATION AIDS
Type NDB Name Champlain Frequency 336 KHZ
Type NDB Name Ste-Foy Frequency 329 KHZ
Type NDB Name Quebec Frequency 230 KHZ
Type VORTAC Name Quebec Frequency 112800 KHZ



Powered by Virtual Airlines Manager [v2.6.2]